Time;durP1;ratioP1;P1;durP2;ratioP2;P2;SDS_P1;SDS_P2;PMS_P1;PMS_P2;Temp;Humidity;BMP_temperature;BMP_pressure;BME280_temperature;BME280_humidity;BME280_pressure;Samples;Min_cycle;Max_cycle;Signal;HPM_P1;HPM_P2
2023/03/10 00:02:18;;;;;;;4.82;2.65;;;;;;;2.05;83.29;97075.91;5016174;28;20049;-53
2023/03/10 00:04:49;;;;;;;3.97;3.10;;;;;;;2.08;83.40;97071.59;5018886;28;20092;-52
2023/03/10 00:07:16;;;;;;;3.70;2.45;;;;;;;2.09;84.04;97070.75;5020291;28;20100;-51
2023/03/10 00:09:42;;;;;;;3.40;2.80;;;;;;;2.12;83.64;97060.47;5017996;28;20127;-52
2023/03/10 00:12:09;;;;;;;2.63;1.92;;;;;;;2.12;83.87;97063.00;5016229;28;20077;-53
2023/03/10 00:14:36;;;;;;;3.35;1.42;;;;;;;2.12;83.37;97056.19;5020963;28;20915;-54
2023/03/10 00:17:04;;;;;;;4.68;2.80;;;;;;;2.15;82.54;97065.50;5014844;28;20100;-53
2023/03/10 00:19:30;;;;;;;2.40;1.92;;;;;;;2.12;84.10;97050.25;5029740;28;20076;-52
2023/03/10 00:21:57;;;;;;;2.33;1.63;;;;;;;2.13;83.70;97059.59;5017292;28;21842;-52
2023/03/10 00:24:23;;;;;;;3.63;3.30;;;;;;;2.15;83.03;97062.97;5031546;28;20073;-52
2023/03/10 00:26:51;;;;;;;4.07;2.20;;;;;;;2.17;83.55;97066.34;5016590;28;20081;-53
2023/03/10 00:29:17;;;;;;;2.70;2.05;;;;;;;2.16;82.88;97067.22;5019729;28;20049;-52
2023/03/10 00:31:44;;;;;;;4.72;2.40;;;;;;;2.16;84.16;97062.13;5020715;28;20049;-54
2023/03/10 00:34:11;;;;;;;3.20;2.55;;;;;;;2.15;83.81;97075.72;5020494;28;20128;-50
2023/03/10 00:36:39;;;;;;;4.47;3.13;;;;;;;2.15;82.74;97058.72;5020565;28;20046;-52
2023/03/10 00:39:06;;;;;;;3.60;2.60;;;;;;;2.17;82.80;97048.47;5017322;28;20147;-54
2023/03/10 00:41:38;;;;;;;2.45;1.83;;;;;;;2.16;82.63;97067.22;5017272;28;20057;-54
2023/03/10 00:44:08;;;;;;;4.10;3.47;;;;;;;2.17;84.03;97068.91;5017448;28;20557;-52
2023/03/10 00:46:37;;;;;;;3.42;2.45;;;;;;;2.18;82.67;97065.47;5024828;28;20061;-53
2023/03/10 00:49:05;;;;;;;3.40;2.70;;;;;;;2.18;83.12;97070.56;5026747;28;20049;-50
2023/03/10 00:51:32;;;;;;;4.63;2.47;;;;;;;2.17;82.66;97061.25;5026600;28;20112;-50
2023/03/10 00:54:00;;;;;;;2.92;2.47;;;;;;;2.17;83.36;97068.91;5022427;28;20069;-52
2023/03/10 00:56:28;;;;;;;4.35;2.60;;;;;;;2.17;82.92;97069.72;5022180;28;20072;-51
2023/03/10 00:58:57;;;;;;;3.47;2.67;;;;;;;2.18;84.16;97070.56;5023638;28;20053;-52
2023/03/10 01:01:31;;;;;;;4.68;2.53;;;;;;;2.16;83.01;97075.72;5026486;28;20576;-50
2023/03/10 01:04:02;;;;;;;5.25;2.58;;;;;;;2.19;83.97;97067.16;5027488;28;20045;-54
2023/03/10 01:06:29;;;;;;;2.28;2.08;;;;;;;2.18;83.90;97070.56;5026737;28;20482;-51
2023/03/10 01:08:55;;;;;;;2.75;2.05;;;;;;;2.20;82.64;97071.41;5025492;28;20111;-54
2023/03/10 01:11:25;;;;;;;3.47;2.17;;;;;;;2.16;83.02;97052.72;5023849;28;20084;-53
2023/03/10 01:13:56;;;;;;;4.20;2.58;;;;;;;2.20;82.80;97062.91;5026069;28;20429;-53
2023/03/10 01:16:22;;;;;;;4.53;2.63;;;;;;;2.22;83.88;97062.00;5025973;28;20111;-54
2023/03/10 01:18:49;;;;;;;3.25;2.08;;;;;;;2.20;83.07;97063.75;5026943;28;20057;-53
2023/03/10 01:21:20;;;;;;;3.60;3.20;;;;;;;2.22;83.55;97067.09;5026136;28;20115;-52
2023/03/10 01:23:47;;;;;;;3.35;2.13;;;;;;;2.18;83.78;97070.56;5025615;28;20080;-52
2023/03/10 01:26:14;;;;;;;3.00;2.13;;;;;;;2.21;83.92;97064.56;5020407;28;20078;-53
2023/03/10 01:28:44;;;;;;;3.30;2.17;;;;;;;2.19;82.66;97072.25;5026241;28;20614;-50
2023/03/10 01:31:11;;;;;;;3.08;2.28;;;;;;;2.20;83.91;97071.41;5024888;28;20077;-49
2023/03/10 01:33:39;;;;;;;2.53;1.67;;;;;;;2.22;83.13;97077.31;5026955;28;20045;-53
2023/03/10 01:36:08;;;;;;;2.67;1.73;;;;;;;2.21;83.91;97073.09;5023958;28;20045;-56
2023/03/10 01:38:35;;;;;;;3.25;2.53;;;;;;;2.23;82.92;97089.22;5024273;28;20053;-50
2023/03/10 01:41:03;;;;;;;2.85;2.47;;;;;;;2.23;83.24;97094.31;5024523;28;20048;-52
2023/03/10 01:49:09;;;;;;;1.48;0.70;;;;;;;2.39;83.41;97101.72;5068101;27;20728;-53
2023/03/10 01:51:38;;;;;;;2.75;2.42;;;;;;;2.33;83.75;97096.72;5028892;28;20077;-54
2023/03/10 01:54:10;;;;;;;1.90;1.80;;;;;;;2.29;83.96;97094.22;4993549;28;20132;-52
2023/03/10 01:56:37;;;;;;;1.48;1.38;;;;;;;2.27;82.65;97095.94;4999082;28;20050;-49
2023/03/10 01:59:04;;;;;;;1.90;1.80;;;;;;;2.23;84.26;97096.03;4995400;28;20113;-54
2023/03/10 02:01:32;;;;;;;3.10;2.15;;;;;;;2.18;83.94;97107.19;4992667;28;20693;-55
2023/03/10 02:04:03;;;;;;;1.80;0.73;;;;;;;2.18;83.06;97102.06;4996580;28;20537;-50
2023/03/10 02:06:33;;;;;;;2.35;2.25;;;;;;;2.20;83.63;97109.72;4998695;28;20108;-55
2023/03/10 02:09:02;;;;;;;1.88;1.77;;;;;;;2.18;83.04;97114.00;4989838;28;20078;-55
2023/03/10 02:11:29;;;;;;;2.20;1.75;;;;;;;2.16;82.90;97119.13;5007066;28;20125;-56
2023/03/10 02:13:56;;;;;;;2.03;1.88;;;;;;;2.17;83.12;97109.75;4997145;28;20116;-54
2023/03/10 02:16:22;;;;;;;2.65;1.70;;;;;;;2.16;82.93;97123.41;4993915;28;20046;-55
2023/03/10 02:18:49;;;;;;;1.58;1.48;;;;;;;2.10;84.17;97118.38;4996037;28;20105;-55
2023/03/10 02:27:13;;;;;;;1.80;1.70;;;;;;;2.09;83.11;97121.81;5082259;27;20413;-54
2023/03/10 02:29:45;;;;;;;1.48;1.38;;;;;;;2.05;82.99;97137.16;5075567;28;20355;-55
2023/03/10 02:32:26;;;;;;;2.35;2.15;;;;;;;2.08;83.61;97141.38;5079609;28;20089;-56
2023/03/10 02:34:53;;;;;;;3.83;2.03;;;;;;;2.04;82.54;97135.50;5079420;28;20098;-55
2023/03/10 02:37:23;;;;;;;1.75;1.05;;;;;;;2.07;82.98;97133.75;5072233;28;20380;-52
2023/03/10 02:39:50;;;;;;;1.67;1.45;;;;;;;2.05;84.02;97126.97;5059820;28;20500;-55
2023/03/10 02:42:17;;;;;;;2.10;1.90;;;;;;;2.03;84.15;97133.78;5078641;28;20058;-55
2023/03/10 02:44:46;;;;;;;1.98;1.88;;;;;;;2.03;83.14;97128.69;5079519;28;20151;-56
2023/03/10 02:47:13;;;;;;;1.90;1.80;;;;;;;2.03;83.91;97133.78;5077312;28;20048;-53
2023/03/10 02:49:40;;;;;;;1.45;1.33;;;;;;;1.98;83.22;97135.56;5082105;28;20087;-55
2023/03/10 02:52:16;;;;;;;0.57;0.50;;;;;;;1.99;84.33;97131.31;5080491;28;20553;-53
2023/03/10 02:54:43;;;;;;;2.22;2.13;;;;;;;2.00;84.28;97143.22;5080008;28;20079;-55
2023/03/10 02:57:09;;;;;;;2.13;2.00;;;;;;;2.03;83.74;97138.88;5063038;28;20464;-54
2023/03/10 02:59:36;;;;;;;1.88;1.77;;;;;;;2.05;83.24;97146.53;5060848;28;20072;-54
2023/03/10 03:02:03;;;;;;;2.17;1.98;;;;;;;2.02;83.20;97142.31;5071342;28;20074;-56
2023/03/10 03:04:30;;;;;;;5.28;2.00;;;;;;;2.07;84.02;97156.72;5081738;28;20136;-55
2023/03/10 03:06:57;;;;;;;2.05;0.50;;;;;;;2.05;83.28;97147.38;5082021;28;20618;-58
2023/03/10 03:09:23;;;;;;;2.80;2.45;;;;;;;2.05;83.58;97142.28;5061093;28;20783;-53
2023/03/10 03:11:50;;;;;;;2.40;2.30;;;;;;;1.97;84.51;97144.09;5059410;28;20072;-54
2023/03/10 03:14:17;;;;;;;2.65;2.55;;;;;;;1.99;83.70;97147.47;5062805;28;20076;-52
2023/03/10 03:16:45;;;;;;;1.75;1.65;;;;;;;2.02;84.08;97152.53;5059217;28;20040;-56
2023/03/10 03:19:12;;;;;;;2.17;2.03;;;;;;;1.98;83.57;97166.22;5057997;28;20064;-53
2023/03/10 03:21:38;;;;;;;1.67;1.58;;;;;;;1.99;83.66;97178.09;5060209;28;20138;-53
2023/03/10 03:24:05;;;;;;;1.10;0.38;;;;;;;2.01;84.46;97181.50;5060954;28;20094;-53
2023/03/10 03:26:32;;;;;;;2.55;2.45;;;;;;;2.03;83.21;97184.03;5060084;27;20052;-58
2023/03/10 03:28:59;;;;;;;2.17;1.98;;;;;;;2.07;83.40;97189.91;5057592;28;20076;-56
2023/03/10 03:31:25;;;;;;;1.95;1.85;;;;;;;2.05;83.24;97193.34;5054140;28;20044;-55
2023/03/10 03:33:52;;;;;;;2.38;2.22;;;;;;;2.05;83.95;97207.81;5054194;28;20052;-54
2023/03/10 03:36:19;;;;;;;1.98;1.85;;;;;;;2.03;83.09;97197.63;5055348;28;20099;-51
2023/03/10 03:38:45;;;;;;;2.17;1.98;;;;;;;2.04;83.71;97201.88;5040461;28;20134;-55
2023/03/10 03:41:12;;;;;;;1.90;1.80;;;;;;;2.03;83.27;97210.38;5044226;28;20068;-54
2023/03/10 03:43:38;;;;;;;2.15;2.05;;;;;;;2.00;82.75;97209.59;5042282;28;21034;-54
2023/03/10 03:46:05;;;;;;;1.88;1.77;;;;;;;1.98;83.27;97214.72;5041171;28;20060;-53
2023/03/10 03:48:33;;;;;;;2.20;2.05;;;;;;;1.99;83.03;97213.00;5045589;28;20562;-55
2023/03/10 03:51:01;;;;;;;2.00;1.90;;;;;;;1.98;82.31;97222.38;5045557;28;20135;-57
2023/03/10 03:53:28;;;;;;;1.40;1.40;;;;;;;1.95;83.06;97226.69;5046339;28;20095;-53
2023/03/10 03:55:55;;;;;;;1.88;1.77;;;;;;;1.92;83.02;97222.44;5044661;28;20041;-52
2023/03/10 03:58:22;;;;;;;0.63;0.60;;;;;;;1.92;83.03;97227.56;5044159;28;20582;-55
2023/03/10 04:00:48;;;;;;;1.85;1.75;;;;;;;1.91;82.54;97228.44;5046137;28;20700;-55
2023/03/10 04:03:17;;;;;;;2.33;2.22;;;;;;;1.89;82.90;97232.72;5046640;28;20044;-53
2023/03/10 04:05:44;;;;;;;1.45;1.40;;;;;;;1.84;81.81;97244.69;5046329;28;20728;-57
2023/03/10 04:08:12;;;;;;;1.80;1.70;;;;;;;1.83;82.68;97243.00;5043812;28;20509;-53
2023/03/10 04:10:39;;;;;;;2.00;1.90;;;;;;;1.82;81.74;97254.06;5044456;28;20497;-55
2023/03/10 04:13:05;;;;;;;1.90;1.80;;;;;;;1.74;82.30;97255.00;5047532;28;20099;-56
2023/03/10 04:15:32;;;;;;;1.27;1.27;;;;;;;1.71;82.07;97260.16;5043816;28;20045;-55
2023/03/10 04:17:58;;;;;;;1.75;1.65;;;;;;;1.68;82.33;97265.28;5044995;28;20053;-58
2023/03/10 04:20:25;;;;;;;1.98;1.88;;;;;;;1.71;82.38;97279.72;5042157;28;20084;-58
2023/03/10 04:22:52;;;;;;;2.08;1.98;;;;;;;1.70;82.75;97281.44;5045412;28;20049;-55
2023/03/10 04:25:18;;;;;;;1.45;1.35;;;;;;;1.66;82.25;97288.25;5043263;28;20045;-54
2023/03/10 04:27:45;;;;;;;1.35;1.35;;;;;;;1.67;82.24;97295.09;5046839;28;20144;-58
2023/03/10 04:30:13;;;;;;;1.63;1.52;;;;;;;1.70;82.10;97309.50;5042770;28;20119;-56
2023/03/10 04:32:40;;;;;;;1.80;1.63;;;;;;;1.64;82.50;97317.22;5038545;28;20072;-54
2023/03/10 04:35:07;;;;;;;1.75;1.65;;;;;;;1.64;83.22;97319.78;5046320;28;20044;-55
2023/03/10 04:37:34;;;;;;;0.60;0.38;;;;;;;1.62;82.56;97321.50;5043895;28;20136;-54
2023/03/10 04:40:08;;;;;;;2.35;2.17;;;;;;;1.61;83.12;97319.78;5046460;28;20041;-55
2023/03/10 04:42:35;;;;;;;2.28;1.88;;;;;;;1.60;81.89;97333.41;5043097;28;20511;-58
2023/03/10 04:45:02;;;;;;;1.25;1.15;;;;;;;1.57;83.09;97336.00;5046489;28;20056;-57
2023/03/10 04:47:28;;;;;;;1.85;1.73;;;;;;;1.49;82.22;97342.03;5042360;28;20132;-53
2023/03/10 04:49:55;;;;;;;2.40;2.20;;;;;;;1.52;81.91;97336.91;5040354;28;20131;-56
2023/03/10 04:52:21;;;;;;;1.70;1.60;;;;;;;1.48;81.68;97348.00;5038578;28;20061;-56
2023/03/10 04:54:48;;;;;;;3.38;3.17;;;;;;;1.48;81.86;97355.66;5041788;28;20179;-56
2023/03/10 04:57:15;;;;;;;2.50;2.22;;;;;;;1.45;81.73;97365.03;5041179;28;20132;-57
2023/03/10 04:59:41;;;;;;;2.47;2.13;;;;;;;1.45;82.88;97370.97;5042301;28;20114;-58
2023/03/10 05:02:08;;;;;;;2.35;2.15;;;;;;;1.44;81.94;97388.84;5043175;28;20132;-54
2023/03/10 05:04:35;;;;;;;2.72;2.22;;;;;;;1.38;81.73;97394.84;5045814;28;20045;-54
2023/03/10 05:07:01;;;;;;;4.13;3.83;;;;;;;1.33;82.75;97396.59;5042272;28;20056;-57
2023/03/10 05:09:28;;;;;;;2.45;2.25;;;;;;;1.32;82.06;97400.00;5042385;28;20127;-52
2023/03/10 05:11:54;;;;;;;4.22;2.65;;;;;;;1.28;82.83;97400.03;5042449;28;20055;-55
2023/03/10 05:14:21;;;;;;;2.05;1.95;;;;;;;1.31;81.23;97398.31;5045225;28;20082;-57
2023/03/10 05:16:48;;;;;;;1.15;0.60;;;;;;;1.28;81.96;97394.94;5044846;28;20451;-55
2023/03/10 05:19:14;;;;;;;4.68;2.50;;;;;;;1.22;82.23;97407.72;5043342;28;20071;-54
2023/03/10 05:21:41;;;;;;;2.55;1.88;;;;;;;1.25;81.69;97425.53;5041191;28;20061;-52
2023/03/10 05:24:07;;;;;;;1.75;1.65;;;;;;;1.25;82.81;97434.91;5045777;28;20098;-52
2023/03/10 05:26:34;;;;;;;2.55;2.35;;;;;;;1.20;81.55;97442.59;5044276;28;20075;-54
2023/03/10 05:29:01;;;;;;;2.25;2.15;;;;;;;1.20;81.80;97442.59;5045698;28;20067;-59
2023/03/10 05:31:27;;;;;;;1.95;1.80;;;;;;;1.16;82.81;97446.03;5049599;28;20044;-54
2023/03/10 05:33:54;;;;;;;3.17;2.65;;;;;;;1.16;82.84;97446.03;5046077;28;20488;-53
2023/03/10 05:36:21;;;;;;;2.03;1.88;;;;;;;1.11;82.43;97452.84;5046181;28;20069;-54
2023/03/10 05:38:49;;;;;;;2.88;2.63;;;;;;;1.12;82.38;97465.56;5044225;28;20500;-56
2023/03/10 05:41:15;;;;;;;1.70;1.55;;;;;;;1.11;82.43;97478.34;5044667;28;20049;-52
2023/03/10 05:43:42;;;;;;;1.88;1.77;;;;;;;1.11;82.27;97493.63;5043325;28;20080;-55
2023/03/10 05:46:10;;;;;;;1.70;1.60;;;;;;;1.06;82.72;97490.28;5042306;28;20070;-57
2023/03/10 05:48:37;;;;;;;2.85;2.75;;;;;;;1.02;82.99;97495.38;5043753;28;20053;-54
2023/03/10 05:51:08;;;;;;;0.10;0.10;;;;;;;0.97;82.59;97522.59;5038815;28;20068;-53
2023/03/10 05:53:36;;;;;;;1.65;1.55;;;;;;;0.95;83.00;97529.41;5026102;28;20040;-54
2023/03/10 05:56:09;;;;;;;1.30;1.30;;;;;;;0.93;83.28;97531.13;5042375;28;20045;-54
2023/03/10 05:58:35;;;;;;;1.40;1.30;;;;;;;0.94;82.04;97540.47;5042327;28;20065;-53
2023/03/10 06:01:02;;;;;;;1.95;1.85;;;;;;;0.95;82.90;97544.69;5042657;28;20080;-53
2023/03/10 06:03:29;;;;;;;1.92;1.83;;;;;;;0.91;82.94;97550.66;5045475;28;20072;-55
2023/03/10 06:05:57;;;;;;;1.95;1.85;;;;;;;0.91;83.33;97558.31;5041268;28;20048;-53
2023/03/10 06:08:26;;;;;;;1.98;1.88;;;;;;;0.91;82.26;97578.69;5042102;28;20053;-51
2023/03/10 06:10:54;;;;;;;0.63;0.40;;;;;;;0.84;83.38;97597.44;5040579;28;20140;-50
2023/03/10 06:13:20;;;;;;;0.43;0.15;;;;;;;0.84;82.53;97593.16;5040402;28;22742;-52
2023/03/10 06:15:49;;;;;;;0.50;0.50;;;;;;;0.84;82.94;97588.06;5044800;28;20136;-52
2023/03/10 06:18:17;;;;;;;0.70;0.52;;;;;;;0.83;83.03;97598.28;5044202;28;20072;-48
2023/03/10 06:20:45;;;;;;;1.60;1.50;;;;;;;0.80;82.82;97600.81;5042017;28;20049;-53
2023/03/10 06:23:13;;;;;;;0.60;0.52;;;;;;;0.82;83.52;97616.97;5045718;28;20083;-50
2023/03/10 06:25:39;;;;;;;2.38;2.25;;;;;;;0.79;83.16;97625.47;5052947;28;20424;-52
2023/03/10 06:28:08;;;;;;;0.40;0.40;;;;;;;0.77;83.75;97653.50;5059605;28;20048;-50
2023/03/10 06:30:35;;;;;;;2.13;2.03;;;;;;;0.77;83.49;97656.06;5062827;28;20151;-55
2023/03/10 06:33:02;;;;;;;1.90;1.80;;;;;;;0.80;83.25;97682.38;5058531;28;20412;-51
2023/03/10 06:35:30;;;;;;;1.92;1.48;;;;;;;0.75;83.29;97698.53;5059433;28;20671;-51
2023/03/10 06:37:57;;;;;;;1.70;1.55;;;;;;;0.74;82.91;97686.63;5052313;28;20475;-49
2023/03/10 06:40:24;;;;;;;0.40;0.30;;;;;;;0.75;83.11;97705.34;5045821;28;20048;-56
2023/03/10 06:42:50;;;;;;;2.03;1.92;;;;;;;0.72;83.86;97721.47;5061398;28;20052;-50
2023/03/10 06:45:17;;;;;;;1.40;1.38;;;;;;;0.72;82.73;97721.47;5061350;28;20116;-52
2023/03/10 06:47:44;;;;;;;0.55;0.40;;;;;;;0.70;83.63;97748.66;5060821;28;20076;-51
2023/03/10 06:50:12;;;;;;;0.30;0.30;;;;;;;0.71;83.53;97749.50;5059993;28;20474;-52
2023/03/10 06:52:38;;;;;;;0.40;0.30;;;;;;;0.69;83.10;97761.38;5058310;28;20559;-52
2023/03/10 06:55:05;;;;;;;0.52;0.25;;;;;;;0.68;83.91;97780.06;5042717;28;20053;-52
2023/03/10 06:57:32;;;;;;;0.50;0.47;;;;;;;0.65;83.09;97778.38;5044313;28;20045;-51
2023/03/10 07:00:00;;;;;;;0.13;0.10;;;;;;;0.67;83.05;97788.56;5037380;28;20677;-51
2023/03/10 07:02:27;;;;;;;2.13;2.03;;;;;;;0.63;83.53;97813.19;5044330;28;20064;-52
2023/03/10 07:04:53;;;;;;;1.55;1.45;;;;;;;0.62;83.00;97826.78;5043240;28;20103;-53
2023/03/10 07:07:20;;;;;;;1.95;1.85;;;;;;;0.65;83.96;97847.16;5042255;28;20224;-50
2023/03/10 07:09:46;;;;;;;1.05;0.57;;;;;;;0.67;83.67;97844.63;5037572;28;20076;-49
2023/03/10 07:12:13;;;;;;;0.85;0.50;;;;;;;0.60;83.70;97874.31;5044370;28;20053;-51
2023/03/10 07:14:39;;;;;;;2.42;2.33;;;;;;;0.57;83.32;97894.72;5045551;28;20091;-50
2023/03/10 07:17:06;;;;;;;2.45;1.80;;;;;;;0.54;83.57;97904.91;5046632;28;20099;-49
2023/03/10 07:19:33;;;;;;;5.70;1.92;;;;;;;0.54;83.28;97927.81;5047194;28;20136;-49
2023/03/10 07:21:59;;;;;;;1.63;1.52;;;;;;;0.53;82.92;97928.69;5043958;28;20057;-53
2023/03/10 07:24:26;;;;;;;0.35;0.20;;;;;;;0.54;83.67;97945.66;5048305;28;20052;-52
2023/03/10 07:26:52;;;;;;;1.65;1.55;;;;;;;0.48;83.49;97965.13;5044665;28;20068;-50
2023/03/10 07:29:19;;;;;;;1.15;0.55;;;;;;;0.50;84.43;97945.63;5044253;28;20090;-51
2023/03/10 07:31:46;;;;;;;0.65;0.60;;;;;;;0.50;84.55;98011.00;5043690;28;20081;-54
2023/03/10 07:34:12;;;;;;;3.80;3.60;;;;;;;0.45;84.00;97993.16;5042702;28;20047;-52
2023/03/10 07:36:39;;;;;;;1.80;1.70;;;;;;;0.41;84.71;98016.06;5046634;28;20545;-48
2023/03/10 07:39:05;;;;;;;1.70;1.60;;;;;;;0.47;83.98;98021.19;5041811;28;20094;-50
2023/03/10 07:41:32;;;;;;;1.73;1.63;;;;;;;0.46;84.45;98012.69;5043685;28;20049;-51
2023/03/10 07:43:59;;;;;;;2.03;1.92;;;;;;;0.43;84.39;98030.50;5037607;28;20528;-51
2023/03/10 07:46:26;;;;;;;2.20;2.10;;;;;;;0.43;84.17;98025.41;5042394;28;20076;-50
2023/03/10 07:48:54;;;;;;;1.90;1.80;;;;;;;0.38;84.39;98040.66;5041824;28;20150;-52
2023/03/10 07:51:21;;;;;;;1.63;1.52;;;;;;;0.33;84.53;98044.03;5042662;28;20049;-50
2023/03/10 07:53:47;;;;;;;0.52;0.28;;;;;;;0.37;84.10;98050.84;5041492;28;20052;-50
2023/03/10 07:56:14;;;;;;;1.80;1.70;;;;;;;0.33;84.79;98031.28;5041913;28;20095;-52
2023/03/10 07:58:41;;;;;;;1.33;0.85;;;;;;;0.38;84.17;98070.38;5043443;28;20049;-53
2023/03/10 08:01:13;;;;;;;2.60;2.03;;;;;;;0.36;84.08;98064.41;5036351;28;20131;-55
2023/03/10 08:03:40;;;;;;;2.13;1.92;;;;;;;0.38;84.58;98098.41;5041966;28;20060;-52
2023/03/10 08:06:07;;;;;;;2.13;2.03;;;;;;;0.36;84.19;98131.50;5045339;28;20055;-52
2023/03/10 08:08:33;;;;;;;2.80;2.15;;;;;;;0.35;84.39;98156.97;5038840;28;20072;-52
2023/03/10 08:11:05;;;;;;;2.72;2.28;;;;;;;0.37;84.57;98132.34;5040199;28;20137;-53
2023/03/10 08:13:32;;;;;;;2.75;2.55;;;;;;;0.40;84.64;98152.75;5040771;28;20507;-53
2023/03/10 08:15:59;;;;;;;2.88;2.67;;;;;;;0.38;85.03;98164.63;5042867;28;20519;-53
2023/03/10 08:18:28;;;;;;;2.55;2.17;;;;;;;0.40;84.86;98203.69;5067622;28;20056;-55
2023/03/10 08:20:55;;;;;;;2.03;1.92;;;;;;;0.41;83.94;98215.59;5067119;28;20559;-51
2023/03/10 08:23:23;;;;;;;2.13;2.03;;;;;;;0.46;84.80;98219.03;5068834;28;20539;-52
2023/03/10 08:25:50;;;;;;;0.57;0.35;;;;;;;0.50;83.99;98240.28;5062917;28;20152;-51
2023/03/10 08:28:17;;;;;;;1.33;0.88;;;;;;;0.50;84.47;98256.44;5057017;28;20171;-51
2023/03/10 08:30:44;;;;;;;2.10;1.95;;;;;;;0.54;83.62;98257.28;5068147;28;20135;-56
2023/03/10 08:33:29;;;;;;;0.82;0.82;;;;;;;0.64;83.99;98270.97;5066178;28;20048;-49
2023/03/10 08:36:02;;;;;;;0.60;0.20;;;;;;;0.62;83.55;98262.47;5070591;28;20074;-53
2023/03/10 08:38:29;;;;;;;2.28;2.17;;;;;;;0.69;83.81;98287.19;5062886;28;20119;-52
2023/03/10 08:40:56;;;;;;;0.70;0.70;;;;;;;0.70;83.31;98298.19;5065239;28;20048;-53
2023/03/10 08:43:23;;;;;;;2.38;1.73;;;;;;;0.79;83.48;98305.06;5067529;28;20750;-55
2023/03/10 08:45:50;;;;;;;1.15;0.93;;;;;;;0.74;83.66;98315.22;5072143;28;20040;-51
2023/03/10 08:48:16;;;;;;;1.52;1.42;;;;;;;0.80;82.58;98315.28;5066831;28;20091;-57
2023/03/10 08:50:43;;;;;;;3.10;1.80;;;;;;;0.81;82.98;98326.34;5067050;28;20056;-49
2023/03/10 08:53:11;;;;;;;1.92;1.83;;;;;;;0.89;82.25;98332.38;5067441;28;20075;-55
2023/03/10 08:55:38;;;;;;;1.77;1.67;;;;;;;0.98;82.69;98334.16;5071118;28;20055;-50
2023/03/10 08:58:04;;;;;;;2.40;2.20;;;;;;;1.01;82.92;98355.41;5068071;28;20484;-52
2023/03/10 09:00:31;;;;;;;1.85;1.75;;;;;;;1.06;82.35;98357.16;5069422;28;20149;-53
2023/03/10 09:02:57;;;;;;;2.30;2.20;;;;;;;1.09;81.55;98377.56;5059145;28;20053;-56
2023/03/10 09:05:24;;;;;;;2.00;1.90;;;;;;;1.13;81.96;98375.06;5058591;28;20514;-56
2023/03/10 09:07:50;;;;;;;0.20;0.20;;;;;;;1.22;81.19;98384.47;5059136;28;20838;-55
2023/03/10 09:10:17;;;;;;;1.52;1.42;;;;;;;1.26;82.03;98401.53;5056971;28;20131;-49
2023/03/10 09:12:44;;;;;;;2.25;2.15;;;;;;;1.34;81.13;98403.28;5063630;28;20084;-51
2023/03/10 09:15:10;;;;;;;2.78;2.65;;;;;;;1.40;80.78;98403.34;5064750;28;20044;-53
2023/03/10 09:17:37;;;;;;;1.83;1.73;;;;;;;1.40;80.33;98429.72;5061473;28;20072;-53
2023/03/10 09:20:06;;;;;;;1.90;1.80;;;;;;;1.49;80.40;98439.13;5060186;28;20048;-52
2023/03/10 09:22:33;;;;;;;1.65;1.55;;;;;;;1.59;80.45;98454.53;5062634;28;20106;-52
2023/03/10 09:24:59;;;;;;;1.75;1.65;;;;;;;1.62;80.76;98472.41;5061647;28;20138;-49
2023/03/10 09:27:26;;;;;;;2.80;1.58;;;;;;;1.57;79.20;98476.59;5061176;28;20040;-46
2023/03/10 09:29:53;;;;;;;1.88;1.77;;;;;;;1.58;79.84;98486.00;5060377;28;20068;-51
2023/03/10 09:32:19;;;;;;;2.03;1.92;;;;;;;1.59;79.28;98480.03;5059914;28;20071;-54
2023/03/10 09:34:46;;;;;;;0.70;0.65;;;;;;;1.65;79.73;98485.19;5064514;28;20853;-50
2023/03/10 09:37:13;;;;;;;1.80;1.70;;;;;;;1.66;79.81;98481.81;5062354;28;20048;-49
2023/03/10 09:39:39;;;;;;;2.47;2.30;;;;;;;1.71;79.73;98498.00;5060322;28;20076;-50
2023/03/10 09:45:03;;;;;;;0.93;0.45;;;;;;;1.90;78.58;98505.81;5058161;27;20411;-52
2023/03/10 09:50:39;;;;;;;4.82;1.80;;;;;;;1.78;78.52;98548.28;5040561;27;20790;-52
2023/03/10 09:55:44;;;;;;;3.08;1.42;;;;;;;1.89;77.87;98556.00;5043292;27;20399;-52
2023/03/10 09:58:27;;;;;;;1.52;0.47;;;;;;;1.85;78.75;98568.72;4996095;28;20061;-55
2023/03/10 10:00:54;;;;;;;0.70;0.52;;;;;;;1.76;78.49;98569.53;5001700;28;20074;-54
2023/03/10 10:03:27;;;;;;;1.42;1.05;;;;;;;1.78;77.75;98589.13;5000060;28;20104;-51
2023/03/10 10:05:56;;;;;;;0.88;0.88;;;;;;;1.79;78.21;98595.09;4999799;28;20693;-53
2023/03/10 10:11:02;;;;;;;0.98;0.80;;;;;;;1.87;78.10;98602.81;5048850;28;20410;-48
2023/03/10 10:13:29;;;;;;;2.53;2.33;;;;;;;1.97;78.14;98622.50;5039413;28;20726;-48
2023/03/10 10:16:15;;;;;;;2.33;0.55;;;;;;;2.31;78.49;98638.13;5033354;28;20041;-51
2023/03/10 10:19:08;;;;;;;0.40;0.30;;;;;;;2.56;77.57;98651.06;5059154;28;20041;-50
2023/03/10 10:21:49;;;;;;;1.08;0.60;;;;;;;2.73;76.27;98652.88;5060323;28;20143;-51
2023/03/10 10:24:17;;;;;;;0.80;0.75;;;;;;;2.79;76.43;98663.16;5044564;28;20076;-51
2023/03/10 10:26:44;;;;;;;0.93;0.90;;;;;;;2.97;75.69;98665.81;5033585;28;20073;-51
2023/03/10 10:29:17;;;;;;;1.95;1.85;;;;;;;2.96;75.61;98664.94;5040063;28;20401;-48
2023/03/10 10:32:17;;;;;;;1.05;0.88;;;;;;;2.88;75.33;98675.16;5039550;28;20080;-50
2023/03/10 10:34:45;;;;;;;1.08;0.93;;;;;;;2.77;75.27;98690.41;5052534;28;20053;-52
2023/03/10 10:40:22;;;;;;;2.90;2.72;;;;;;;2.59;74.72;98700.47;5043953;28;20408;-50
2023/03/10 10:42:54;;;;;;;2.20;1.73;;;;;;;2.57;75.92;98709.00;5004724;28;20055;-50
2023/03/10 10:45:26;;;;;;;1.40;1.27;;;;;;;2.51;76.10;98708.97;5026719;28;20074;-49
2023/03/10 10:47:54;;;;;;;2.42;2.20;;;;;;;2.49;76.20;98705.53;4987042;28;20042;-49
2023/03/10 10:56:14;;;;;;;3.53;2.38;;;;;;;2.53;75.78;98744.78;5030802;28;20926;-49
2023/03/10 10:58:43;;;;;;;3.28;2.97;;;;;;;2.50;76.19;98750.69;5030083;28;20499;-48
2023/03/10 11:01:13;;;;;;;2.15;2.05;;;;;;;2.51;76.72;98754.97;5006552;28;20080;-49
2023/03/10 11:03:43;;;;;;;3.17;2.97;;;;;;;2.74;76.05;98762.00;5001459;28;20056;-50
2023/03/10 11:06:14;;;;;;;1.73;1.63;;;;;;;2.76;76.69;98778.19;4985433;28;20046;-51
2023/03/10 11:08:43;;;;;;;;;;;;;;;2.74;75.28;98779.91;5006081;28;20662;-49
2023/03/10 11:21:53;;;;;;;1.40;0.88;;;;;;;3.13;75.34;98784.44;5081973;27;20397;-52
2023/03/10 11:27:07;;;;;;;1.40;1.15;;;;;;;3.40;75.34;98793.13;5035173;27;22091;-48
2023/03/10 11:30:00;;;;;;;0.82;0.75;;;;;;;3.45;74.92;98791.47;5027623;28;20064;-52
2023/03/10 11:32:50;;;;;;;1.23;0.65;;;;;;;3.48;73.78;98791.50;5028380;28;20049;-51
2023/03/10 11:38:16;;;;;;;1.55;0.90;;;;;;;3.66;73.37;98795.00;5006231;27;21240;-50
2023/03/10 11:43:30;;;;;;;2.30;2.10;;;;;;;3.62;73.05;98798.41;5038623;28;20399;-49
2023/03/10 11:46:01;;;;;;;2.28;1.85;;;;;;;3.57;72.00;98806.91;4984491;28;20084;-53
2023/03/10 11:51:04;;;;;;;2.53;2.13;;;;;;;3.38;71.53;98838.38;5060482;27;20408;-49
2023/03/10 11:53:53;;;;;;;2.67;2.35;;;;;;;3.50;72.03;98845.25;5056538;28;20044;-49
2023/03/10 11:56:23;;;;;;;2.50;2.30;;;;;;;3.47;72.15;98861.47;5056989;28;20049;-51
2023/03/10 12:01:32;;;;;;;0.85;0.40;;;;;;;3.46;71.87;98890.47;5050710;27;20411;-48
2023/03/10 12:12:06;;;;;;;1.77;0.85;;;;;;;3.52;71.39;98941.72;5014649;27;20415;-50
2023/03/10 12:14:34;;;;;;;1.30;0.70;;;;;;;3.52;70.92;98946.84;4994959;28;20084;-52
2023/03/10 12:17:02;;;;;;;1.50;0.60;;;;;;;3.51;71.56;98954.53;5002999;28;20076;-50
2023/03/10 12:19:29;;;;;;;0.68;0.55;;;;;;;3.50;70.74;98958.78;5002659;28;20065;-51
2023/03/10 12:22:23;;;;;;;2.47;1.10;;;;;;;3.51;70.36;98964.75;5000014;28;20135;-51
2023/03/10 12:24:51;;;;;;;1.23;0.80;;;;;;;3.38;69.41;98963.78;5000898;28;20069;-52
2023/03/10 12:27:18;;;;;;;2.72;1.13;;;;;;;3.50;69.95;98974.13;4996998;28;20132;-49
2023/03/10 12:29:45;;;;;;;1.75;0.75;;;;;;;3.56;70.85;98979.31;5002582;28;20473;-47
2023/03/10 12:32:47;;;;;;;1.92;1.35;;;;;;;3.50;69.84;98999.72;5003103;28;20505;-47
2023/03/10 12:35:43;;;;;;;2.15;0.77;;;;;;;3.52;70.29;99002.31;5008776;28;20112;-53
2023/03/10 12:41:05;;;;;;;2.05;1.27;;;;;;;3.61;70.32;99012.63;5045084;27;20410;-53
2023/03/10 12:58:04;;;;;;;4.70;4.32;;;;;;;3.90;69.77;99012.03;5053486;28;20397;-51
2023/03/10 13:06:06;;;;;;;1.05;0.73;;;;;;;4.07;69.95;99031.78;5008676;28;20415;-50
2023/03/10 13:14:01;;;;;;;1.52;0.90;;;;;;;4.16;70.39;99024.19;5057575;27;20394;-51
2023/03/10 13:16:29;;;;;;;2.88;1.30;;;;;;;4.24;70.32;99019.09;5002390;28;20069;-50
2023/03/10 13:18:59;;;;;;;1.13;0.98;;;;;;;4.34;70.08;99020.88;5021770;28;20124;-51
2023/03/10 13:21:35;;;;;;;2.47;1.38;;;;;;;4.45;69.72;99027.75;5039226;28;20057;-53